Ander, Texas
Current Conditions -  °F | °C
As of 6:35 AM on Sunday 21 Dec 2014 (Local Time) from KBEA Reporting Station
Overcast Overcast  
Wind Chill: 50°   Ceiling: 3100
Heat Index: 50°   Visibility: 10mi
Dew Point: 50°   Wind: 3mph
Humidity: 100%   Direction: 20°NNE
Pressure: 30.1"   Gusts: NA
Location:  28.6563°N, 97.4287°W
Report Text: KBEA 211235Z AUTO 02003KT 10SM OVC031 10/10 A3010 RMK AO2 T00980098
Loading
Personal Weather Stations






























Interactive Weather Map New forecast layout! Learn more

10-Day Weather Forecast

Advertisements
Track Severe Weather on mobile